Time;durP1;ratioP1;P1;durP2;ratioP2;P2;SDS_P1;SDS_P2;PMS_P1;PMS_P2;Temp;Humidity;BMP_temperature;BMP_pressure;BME280_temperature;BME280_humidity;BME280_pressure;Samples;Min_cycle;Max_cycle;Signal;HPM_P1;HPM_P2
2022/12/31 00:02:01;;;;;;;1.08;0.68;;;11.10;99.90;;;;;;5051803;28;20052;-84
2022/12/31 00:04:48;;;;;;;1.33;0.60;;;11.20;99.90;;;;;;5074175;28;20056;-83
2022/12/31 00:07:36;;;;;;;0.68;0.60;;;11.20;99.90;;;;;;5073183;28;20048;-86
2022/12/31 00:10:22;;;;;;;1.08;0.85;;;11.20;99.90;;;;;;5064785;28;20036;-87
2022/12/31 00:13:11;;;;;;;0.57;0.57;;;11.30;99.90;;;;;;5063675;28;20129;-86
2022/12/31 00:16:10;;;;;;;0.63;0.63;;;11.30;99.90;;;;;;5058366;28;20097;-87
2022/12/31 00:18:59;;;;;;;0.50;0.50;;;11.30;99.90;;;;;;5068959;28;20123;-86
2022/12/31 00:21:47;;;;;;;0.85;0.60;;;11.30;99.90;;;;;;5054583;28;20059;-82
2022/12/31 00:24:34;;;;;;;1.02;0.70;;;11.30;99.90;;;;;;5073114;28;20386;-86
2022/12/31 00:27:22;;;;;;;0.60;0.60;;;11.30;99.90;;;;;;5071261;28;20049;-87
2022/12/31 00:30:10;;;;;;;1.13;0.63;;;11.30;99.90;;;;;;5073325;28;20126;-87
2022/12/31 00:32:57;;;;;;;0.98;0.80;;;11.30;99.90;;;;;;5060999;28;20069;-85
2022/12/31 00:35:44;;;;;;;0.80;0.50;;;11.30;99.90;;;;;;5060474;28;20430;-88
2022/12/31 00:38:32;;;;;;;0.75;0.60;;;11.30;99.90;;;;;;5073546;28;20056;-86
2022/12/31 00:41:21;;;;;;;1.13;0.80;;;11.30;99.90;;;;;;5063988;28;20125;-85
2022/12/31 00:44:11;;;;;;;0.80;0.80;;;11.30;99.90;;;;;;5067209;28;20055;-84
2022/12/31 00:46:58;;;;;;;1.23;0.77;;;11.40;75.70;;;;;;5058876;28;20045;-85
2022/12/31 00:49:48;;;;;;;1.70;0.90;;;11.50;30.00;;;;;;5065694;28;20466;-85
2022/12/31 00:52:35;;;;;;;1.85;0.85;;;11.70;1.00;;;;;;5065575;28;20146;-84
2022/12/31 00:55:25;;;;;;;1.20;0.85;;;11.90;99.90;;;;;;5058894;28;20049;-89
2022/12/31 00:58:12;;;;;;;2.55;1.00;;;11.90;99.90;;;;;;5073970;28;20068;-85
2022/12/31 01:01:10;;;;;;;2.20;0.90;;;12.00;1.00;;;;;;5073774;28;20044;-84
2022/12/31 01:04:10;;;;;;;1.73;0.90;;;12.10;1.00;;;;;;5058925;28;20048;-85
2022/12/31 01:06:57;;;;;;;1.13;0.90;;;12.20;99.90;;;;;;5061375;28;20070;-86
2022/12/31 01:09:45;;;;;;;1.13;0.88;;;12.20;99.90;;;;;;5073593;28;20362;-88
2022/12/31 01:12:32;;;;;;;0.82;0.80;;;12.30;1.00;;;;;;5074676;28;20102;-85
2022/12/31 01:15:19;;;;;;;0.75;0.75;;;12.40;99.90;;;;;;5049018;28;20125;-84
2022/12/31 01:18:07;;;;;;;2.72;0.90;;;12.50;99.90;;;;;;5072272;28;20049;-85
2022/12/31 01:20:54;;;;;;;1.20;0.68;;;12.50;99.90;;;;;;5072646;28;20052;-86
2022/12/31 01:23:43;;;;;;;0.98;0.98;;;12.50;1.00;;;;;;5046229;28;20056;-86
2022/12/31 01:26:31;;;;;;;1.02;0.80;;;12.70;99.90;;;;;;5066961;28;20200;-86
2022/12/31 01:29:18;;;;;;;1.65;0.65;;;12.60;99.90;;;;;;5059522;28;20388;-87
2022/12/31 01:32:05;;;;;;;1.17;0.90;;;12.70;3.20;;;;;;5076738;28;20240;-87
2022/12/31 01:34:56;;;;;;;0.63;0.63;;;12.60;1.00;;;;;;5072950;28;20041;-85
2022/12/31 01:37:43;;;;;;;1.73;0.77;;;12.60;1.00;;;;;;5045835;28;20620;-85
2022/12/31 01:40:36;;;;;;;2.63;0.82;;;12.60;1.00;;;;;;5086762;28;20054;-86
2022/12/31 01:43:23;;;;;;;4.45;1.08;;;12.50;99.90;;;;;;5077599;28;20045;-86
2022/12/31 01:46:16;;;;;;;1.40;0.90;;;12.60;99.90;;;;;;5080602;28;20415;-84
2022/12/31 01:49:41;;;;;;;0.70;0.70;;;12.50;99.90;;;;;;5059683;28;20127;-84
2022/12/31 01:52:36;;;;;;;1.92;1.13;;;12.50;99.90;;;;;;5055483;28;20051;-86
2022/12/31 01:55:32;;;;;;;2.10;1.08;;;12.50;99.90;;;;;;5069807;28;20480;-86
2022/12/31 01:58:33;;;;;;;1.63;0.82;;;12.60;4.60;;;;;;5060453;28;20063;-86
2022/12/31 02:01:35;;;;;;;1.50;1.00;;;12.50;1.00;;;;;;5059976;28;20138;-84
2022/12/31 02:04:25;;;;;;;2.67;0.73;;;12.50;1.00;;;;;;5076421;28;20473;-85
2022/12/31 02:07:15;;;;;;;0.85;0.82;;;12.50;1.00;;;;;;5066816;28;20079;-84
2022/12/31 02:10:03;;;;;;;0.95;0.80;;;12.40;1.00;;;;;;5076375;28;20063;-84
2022/12/31 02:12:51;;;;;;;2.65;1.00;;;12.30;1.00;;;;;;5075340;28;20040;-87
2022/12/31 02:15:47;;;;;;;1.50;0.98;;;12.30;1.00;;;;;;5076110;28;20408;-86
2022/12/31 02:18:55;;;;;;;0.88;0.88;;;12.30;1.00;;;;;;5063085;28;20127;-85
2022/12/31 02:21:54;;;;;;;1.05;0.80;;;12.50;99.90;;;;;;5055191;28;20473;-87
2022/12/31 02:24:44;;;;;;;2.58;0.80;;;12.60;99.90;;;;;;5075665;28;20385;-85
2022/12/31 02:27:38;;;;;;;1.67;0.90;;;12.60;99.90;;;;;;5072491;28;20052;-84
2022/12/31 02:30:30;;;;;;;1.92;0.90;;;12.50;99.90;;;;;;5076574;28;20044;-85
2022/12/31 02:33:42;;;;;;;2.88;0.90;;;12.50;99.90;;;;;;5074264;28;20052;-84
2022/12/31 02:36:37;;;;;;;2.50;1.00;;;12.60;99.90;;;;;;5061720;28;20037;-85
2022/12/31 02:39:25;;;;;;;1.73;0.80;;;12.60;99.90;;;;;;5061436;28;20047;-83
2022/12/31 02:42:12;;;;;;;2.60;0.80;;;12.60;99.90;;;;;;5073280;28;20052;-84
2022/12/31 02:45:00;;;;;;;1.75;0.90;;;12.60;99.90;;;;;;5071422;28;20045;-85
2022/12/31 02:48:03;;;;;;;1.20;0.90;;;12.60;99.90;;;;;;5068990;28;20051;-86
2022/12/31 02:51:41;;;;;;;2.25;0.80;;;12.60;99.90;;;;;;5068995;28;20087;-85
2022/12/31 02:54:57;;;;;;;4.80;1.42;;;12.70;99.90;;;;;;5056941;28;20059;-87
2022/12/31 02:58:13;;;;;;;1.20;1.00;;;12.70;96.90;;;;;;5071853;28;20063;-84
2022/12/31 03:07:17;;;;;;;1.85;1.10;;;13.00;1.00;;;;;;5066660;28;20076;-84
2022/12/31 03:10:07;;;;;;;1.80;0.80;;;12.90;1.00;;;;;;5062066;28;20048;-86
2022/12/31 03:12:58;;;;;;;2.55;0.90;;;12.90;1.00;;;;;;5060134;28;20370;-86
2022/12/31 03:15:45;;;;;;;4.32;1.00;;;13.00;1.00;;;;;;5068692;28;20424;-86
2022/12/31 03:27:53;;;;;;;1.55;0.75;;;13.20;99.90;;;;;;5056249;28;20116;-84
2022/12/31 03:30:43;;;;;;;0.82;0.60;;;13.20;99.90;;;;;;5069328;28;20102;-87
2022/12/31 03:33:33;;;;;;;1.98;1.00;;;13.20;99.90;;;;;;5076695;28;20041;-85
2022/12/31 03:36:20;;;;;;;1.25;0.80;;;13.10;1.00;;;;;;5080667;28;20173;-83
2022/12/31 03:39:07;;;;;;;1.75;0.88;;;13.00;1.00;;;;;;5051213;28;20423;-86
2022/12/31 03:41:54;;;;;;;0.70;0.70;;;12.90;1.00;;;;;;5075048;28;20037;-86
2022/12/31 03:44:41;;;;;;;2.17;0.90;;;13.00;23.80;;;;;;5073847;28;20075;-85
2022/12/31 03:47:29;;;;;;;0.90;0.60;;;13.20;1.00;;;;;;5058809;28;20113;-87
2022/12/31 03:50:18;;;;;;;1.67;0.73;;;13.30;1.00;;;;;;5073291;28;20044;-84
2022/12/31 03:53:05;;;;;;;2.08;1.00;;;13.30;1.00;;;;;;5071579;28;20131;-86
2022/12/31 03:55:53;;;;;;;3.55;0.77;;;13.30;1.00;;;;;;5053589;28;20055;-87
2022/12/31 03:58:40;;;;;;;2.30;0.80;;;13.40;1.00;;;;;;5059881;28;20438;-82
2022/12/31 04:01:30;;;;;;;1.27;0.70;;;13.40;99.90;;;;;;5069015;28;20041;-86
2022/12/31 04:04:21;;;;;;;0.85;0.60;;;13.40;99.90;;;;;;5044517;28;20086;-85
2022/12/31 04:07:08;;;;;;;2.40;0.90;;;13.40;99.90;;;;;;5074996;28;20366;-86
2022/12/31 04:09:57;;;;;;;2.50;0.80;;;13.40;99.90;;;;;;5074498;28;20131;-86
2022/12/31 04:12:44;;;;;;;0.60;0.60;;;13.40;99.90;;;;;;5053202;28;20122;-85
2022/12/31 04:15:38;;;;;;;3.13;0.68;;;13.50;99.90;;;;;;5042594;28;20049;-85
2022/12/31 04:18:25;;;;;;;2.72;1.45;;;13.50;99.90;;;;;;5041492;28;20056;-86
2022/12/31 04:21:14;;;;;;;1.60;0.75;;;13.50;99.90;;;;;;5063031;28;20130;-86
2022/12/31 04:24:02;;;;;;;0.60;0.60;;;13.50;99.90;;;;;;5059437;28;20044;-87
2022/12/31 04:26:49;;;;;;;0.98;0.80;;;13.50;99.90;;;;;;5065512;28;20053;-86
2022/12/31 04:29:37;;;;;;;1.35;0.68;;;13.50;99.90;;;;;;5074817;28;20052;-84
2022/12/31 04:32:24;;;;;;;4.07;0.73;;;13.50;99.90;;;;;;5074095;28;20572;-85
2022/12/31 04:35:12;;;;;;;1.05;0.82;;;13.50;99.90;;;;;;5063237;28;20473;-86
2022/12/31 04:38:07;;;;;;;0.73;0.60;;;13.50;99.90;;;;;;5070101;28;20421;-86
2022/12/31 04:44:04;;;;;;;1.17;0.75;;;13.40;1.00;;;;;;5057219;28;20130;-84
2022/12/31 04:46:51;;;;;;;1.40;0.70;;;13.40;1.00;;;;;;5063120;28;20043;-87
2022/12/31 04:49:38;;;;;;;0.60;0.50;;;13.20;1.00;;;;;;5081075;28;20106;-87
2022/12/31 04:52:25;;;;;;;1.38;0.70;;;13.20;1.00;;;;;;5070125;28;20059;-85
2022/12/31 04:55:13;;;;;;;2.58;0.80;;;13.20;1.00;;;;;;5070287;28;20040;-84
2022/12/31 04:58:00;;;;;;;1.75;0.68;;;13.10;31.80;;;;;;5074403;28;20036;-84
2022/12/31 05:00:49;;;;;;;2.83;0.75;;;13.10;99.90;;;;;;5078703;28;20049;-85
2022/12/31 05:03:37;;;;;;;1.50;0.70;;;13.10;99.90;;;;;;5087217;28;20056;-86
2022/12/31 05:06:26;;;;;;;0.50;0.50;;;13.10;99.90;;;;;;5087949;28;20052;-84
2022/12/31 05:09:13;;;;;;;0.50;0.50;;;13.10;99.90;;;;;;5089947;28;20049;-87
2022/12/31 05:12:03;;;;;;;0.65;0.60;;;13.10;99.90;;;;;;5076926;28;20052;-83
2022/12/31 05:14:50;;;;;;;0.80;0.80;;;13.10;99.90;;;;;;5077630;28;20048;-85
2022/12/31 05:17:37;;;;;;;1.75;0.52;;;13.00;1.00;;;;;;5090921;28;20369;-84
2022/12/31 05:20:24;;;;;;;0.77;0.77;;;13.10;1.00;;;;;;5088868;28;20417;-86
2022/12/31 05:23:12;;;;;;;1.67;1.02;;;13.10;1.00;;;;;;5084554;28;20052;-84
2022/12/31 05:26:00;;;;;;;0.90;0.70;;;13.10;1.00;;;;;;5085844;28;20063;-84
2022/12/31 05:28:49;;;;;;;0.75;0.70;;;13.10;1.00;;;;;;5085306;28;20109;-84
2022/12/31 05:31:38;;;;;;;2.20;0.80;;;13.00;1.00;;;;;;5084999;28;20040;-86
2022/12/31 05:34:26;;;;;;;0.80;0.80;;;13.00;14.70;;;;;;5090375;28;20056;-86
2022/12/31 05:37:18;;;;;;;0.75;0.75;;;13.00;66.40;;;;;;5055860;28;20041;-86
2022/12/31 05:40:06;;;;;;;1.08;0.70;;;13.00;93.60;;;;;;5069801;28;20041;-86
2022/12/31 05:42:53;;;;;;;0.70;0.70;;;13.00;90.70;;;;;;5054325;28;20104;-84
2022/12/31 05:45:45;;;;;;;2.58;0.90;;;13.00;38.30;;;;;;5066863;28;20124;-84
2022/12/31 05:48:32;;;;;;;0.87;0.70;;;13.00;5.80;;;;;;5059886;28;20095;-85
2022/12/31 05:51:19;;;;;;;1.38;0.80;;;13.00;1.00;;;;;;5070762;28;20279;-85
2022/12/31 05:54:06;;;;;;;1.52;0.80;;;12.90;17.40;;;;;;5076749;28;20287;-87
2022/12/31 05:56:53;;;;;;;1.10;0.93;;;12.90;37.10;;;;;;5066926;28;20075;-86
2022/12/31 05:59:42;;;;;;;0.90;0.70;;;12.90;50.10;;;;;;5075530;28;20052;-85
2022/12/31 06:02:29;;;;;;;0.55;0.55;;;13.00;7.80;;;;;;5054476;28;20044;-86
2022/12/31 06:05:19;;;;;;;0.95;0.60;;;13.00;1.00;;;;;;5060872;28;20049;-86
2022/12/31 06:08:14;;;;;;;1.52;0.60;;;13.00;1.00;;;;;;5072848;28;20032;-86
2022/12/31 06:11:01;;;;;;;1.45;0.70;;;13.00;1.00;;;;;;5076389;28;20059;-86
2022/12/31 06:13:48;;;;;;;0.60;0.60;;;13.00;1.00;;;;;;5076559;28;20110;-84
2022/12/31 06:16:36;;;;;;;1.38;0.60;;;13.00;1.00;;;;;;5062489;28;20078;-84
2022/12/31 06:19:24;;;;;;;0.50;0.50;;;13.00;1.00;;;;;;5061554;28;20063;-85
2022/12/31 06:22:12;;;;;;;2.80;0.75;;;12.90;1.00;;;;;;5054963;28;20040;-84
2022/12/31 06:25:00;;;;;;;1.15;0.70;;;12.90;1.00;;;;;;5076856;28;20045;-84
2022/12/31 06:27:47;;;;;;;1.67;0.65;;;12.90;1.00;;;;;;5068945;28;20389;-85
2022/12/31 06:30:35;;;;;;;0.98;0.70;;;12.90;1.00;;;;;;5072470;28;20091;-86
2022/12/31 06:33:22;;;;;;;0.70;0.70;;;12.90;1.00;;;;;;5073009;28;20060;-84
2022/12/31 06:36:13;;;;;;;2.10;0.80;;;12.80;1.00;;;;;;5070793;28;20056;-84
2022/12/31 06:39:01;;;;;;;2.65;1.05;;;12.80;1.00;;;;;;5072913;28;20040;-85
2022/12/31 06:41:48;;;;;;;0.90;0.73;;;12.70;1.00;;;;;;5059822;28;20158;-85
2022/12/31 06:44:35;;;;;;;1.00;0.70;;;12.70;55.20;;;;;;5076320;28;20127;-86
2022/12/31 06:47:23;;;;;;;0.70;0.70;;;12.60;99.90;;;;;;5066518;28;20126;-84
2022/12/31 06:50:10;;;;;;;1.20;0.90;;;12.70;99.90;;;;;;5074141;28;20191;-87
2022/12/31 06:52:57;;;;;;;2.85;0.80;;;12.80;99.90;;;;;;5069677;28;20056;-84
2022/12/31 06:55:46;;;;;;;1.05;0.98;;;12.80;95.70;;;;;;5059501;28;20064;-85
2022/12/31 06:58:33;;;;;;;1.70;0.75;;;12.90;1.80;;;;;;5070304;28;20037;-86
2022/12/31 07:01:27;;;;;;;0.98;0.70;;;12.90;1.00;;;;;;5061656;28;20119;-83
2022/12/31 07:04:21;;;;;;;0.70;0.70;;;12.90;1.00;;;;;;5076863;28;20112;-85
2022/12/31 07:07:42;;;;;;;0.75;0.60;;;12.90;1.00;;;;;;5074045;28;20041;-85
2022/12/31 07:10:46;;;;;;;0.90;0.70;;;12.90;1.00;;;;;;5064885;28;20045;-86
2022/12/31 07:13:49;;;;;;;1.85;0.80;;;12.90;1.00;;;;;;5077778;28;20048;-85
2022/12/31 07:16:45;;;;;;;1.58;0.82;;;13.00;1.00;;;;;;5080229;28;20041;-84
2022/12/31 07:20:04;;;;;;;1.48;0.70;;;13.00;99.90;;;;;;5066744;28;20056;-85
2022/12/31 07:22:52;;;;;;;0.70;0.70;;;13.00;99.90;;;;;;5037302;28;20056;-85
2022/12/31 07:25:49;;;;;;;3.53;0.70;;;12.90;99.90;;;;;;5057187;28;20045;-87
2022/12/31 07:28:59;;;;;;;0.95;0.80;;;12.90;99.90;;;;;;5076115;28;20045;-83
2022/12/31 07:32:39;;;;;;;3.03;0.93;;;13.00;99.90;;;;;;5056640;28;20049;-84
2022/12/31 07:36:00;;;;;;;2.47;0.93;;;13.00;99.90;;;;;;5072313;28;20114;-84
2022/12/31 07:39:25;;;;;;;5.82;0.70;;;13.00;99.90;;;;;;5067331;28;20048;-83
2022/12/31 07:42:30;;;;;;;0.98;0.70;;;13.00;99.90;;;;;;5071508;28;20072;-83
2022/12/31 07:45:29;;;;;;;0.80;0.80;;;13.10;95.30;;;;;;5080201;28;20053;-86
2022/12/31 07:48:24;;;;;;;1.35;0.80;;;13.10;29.40;;;;;;5062492;28;20037;-85
2022/12/31 07:51:11;;;;;;;1.65;0.70;;;13.10;1.00;;;;;;5078205;28;20056;-86
2022/12/31 07:54:00;;;;;;;4.88;0.95;;;13.10;1.00;;;;;;5059870;28;20041;-86
2022/12/31 07:56:49;;;;;;;1.20;0.80;;;13.00;1.00;;;;;;5063145;28;20033;-85
2022/12/31 07:59:42;;;;;;;0.75;0.70;;;13.00;1.00;;;;;;5045650;28;20092;-85
2022/12/31 08:02:50;;;;;;;0.75;0.75;;;13.00;1.00;;;;;;5062994;28;20069;-84
2022/12/31 08:06:06;;;;;;;0.70;0.70;;;13.00;1.00;;;;;;5058090;28;20142;-84
2022/12/31 08:09:51;;;;;;;0.82;0.82;;;13.00;1.00;;;;;;5043312;28;20055;-84
2022/12/31 08:12:42;;;;;;;1.58;1.00;;;13.00;1.00;;;;;;5065376;28;20049;-84
2022/12/31 08:15:30;;;;;;;2.42;1.13;;;13.00;1.00;;;;;;5076966;28;20040;-85
2022/12/31 08:18:23;;;;;;;2.97;1.10;;;13.00;1.00;;;;;;5079363;28;20067;-84
2022/12/31 08:21:16;;;;;;;0.65;0.63;;;13.00;1.00;;;;;;5074708;28;20040;-84
2022/12/31 08:24:15;;;;;;;2.03;0.70;;;13.10;1.00;;;;;;5077993;28;20341;-84
2022/12/31 08:27:12;;;;;;;0.95;0.90;;;13.20;1.00;;;;;;5054763;28;20052;-85
2022/12/31 08:30:13;;;;;;;0.80;0.80;;;13.30;1.00;;;;;;5048321;28;20040;-84
2022/12/31 08:33:34;;;;;;;0.82;0.68;;;13.50;99.90;;;;;;5062716;28;20113;-86
2022/12/31 08:36:43;;;;;;;1.73;0.80;;;13.70;99.90;;;;;;5060471;28;20041;-85
2022/12/31 08:39:57;;;;;;;0.82;0.80;;;13.80;99.90;;;;;;5079149;28;20044;-85
2022/12/31 08:43:03;;;;;;;1.65;1.00;;;14.00;99.90;;;;;;5063543;28;20154;-88
2022/12/31 08:45:52;;;;;;;0.95;0.70;;;14.00;99.80;;;;;;5070196;28;20221;-84
2022/12/31 08:48:42;;;;;;;2.10;0.90;;;14.00;22.90;;;;;;5060281;28;20353;-86
2022/12/31 08:51:30;;;;;;;1.52;1.20;;;14.00;2.50;;;;;;5074578;28;20074;-88
2022/12/31 08:54:18;;;;;;;1.30;0.73;;;13.90;2.50;;;;;;5064495;28;20044;-85
2022/12/31 08:57:27;;;;;;;0.85;0.80;;;13.90;2.90;;;;;;5071411;28;20072;-85
2022/12/31 09:00:20;;;;;;;0.98;0.90;;;13.80;12.60;;;;;;5072361;28;20055;-87
2022/12/31 09:03:11;;;;;;;1.13;1.13;;;13.80;40.70;;;;;;5073798;28;20358;-86
2022/12/31 09:06:26;;;;;;;2.55;0.90;;;13.80;64.00;;;;;;5065103;28;20064;-85
2022/12/31 09:09:32;;;;;;;2.63;0.90;;;13.80;53.50;;;;;;5069962;28;20044;-85
2022/12/31 09:12:41;;;;;;;0.93;0.80;;;14.10;14.30;;;;;;5067282;28;20142;-85
2022/12/31 09:15:41;;;;;;;2.22;0.93;;;14.30;1.00;;;;;;5043621;28;20047;-85
2022/12/31 09:18:32;;;;;;;2.17;1.00;;;14.60;1.00;;;;;;5072595;28;20099;-88
2022/12/31 09:21:20;;;;;;;1.75;1.00;;;14.80;1.00;;;;;;5073131;28;20125;-84
2022/12/31 09:24:15;;;;;;;2.38;0.95;;;15.00;99.90;;;;;;5074491;28;20044;-86
2022/12/31 09:27:11;;;;;;;0.80;0.80;;;15.10;99.90;;;;;;5074271;28;20045;-87
2022/12/31 09:30:12;;;;;;;1.00;0.80;;;15.30;99.90;;;;;;5065845;28;20092;-84
2022/12/31 09:33:17;;;;;;;0.70;0.70;;;15.40;99.90;;;;;;5072534;28;20108;-84
2022/12/31 09:36:17;;;;;;;1.08;0.60;;;15.60;99.90;;;;;;5053919;28;20060;-86
2022/12/31 09:39:46;;;;;;;0.93;0.73;;;15.80;99.90;;;;;;5071962;28;20040;-85
2022/12/31 09:43:15;;;;;;;1.30;0.90;;;16.10;99.90;;;;;;4970933;28;20059;-86
2022/12/31 09:46:09;;;;;;;0.80;0.80;;;16.80;53.10;;;;;;5065238;28;20087;-87
2022/12/31 09:49:08;;;;;;;0.60;0.50;;;17.20;1.00;;;;;;5075631;28;20119;-84
2022/12/31 09:52:13;;;;;;;3.40;0.50;;;17.40;1.00;;;;;;5058323;28;20128;-84
2022/12/31 09:55:06;;;;;;;2.33;0.60;;;17.40;1.00;;;;;;5055530;28;20098;-85
2022/12/31 09:58:14;;;;;;;1.05;0.68;;;17.40;1.00;;;;;;5076850;28;20048;-84
2022/12/31 10:01:17;;;;;;;0.95;0.70;;;17.70;1.00;;;;;;5076587;28;20045;-88
2022/12/31 10:04:24;;;;;;;0.50;0.50;;;17.90;1.00;;;;;;5061064;28;20373;-84
2022/12/31 10:07:39;;;;;;;0.85;0.80;;;18.10;1.00;;;;;;5071185;28;20060;-87
2022/12/31 10:10:57;;;;;;;0.77;0.75;;;18.40;1.00;;;;;;5053949;28;20063;-85
2022/12/31 10:14:12;;;;;;;2.33;0.68;;;18.30;99.90;;;;;;5067961;28;20047;-86
2022/12/31 10:17:01;;;;;;;0.77;0.70;;;18.30;99.90;;;;;;5067237;28;20055;-85
2022/12/31 10:20:22;;;;;;;1.17;0.82;;;18.10;99.90;;;;;;5061340;28;20044;-85
2022/12/31 10:23:19;;;;;;;1.75;1.00;;;17.50;99.90;;;;;;5074537;28;20041;-87
2022/12/31 10:26:45;;;;;;;1.02;0.80;;;17.40;99.90;;;;;;5075882;28;20508;-84
2022/12/31 10:29:46;;;;;;;1.63;0.98;;;17.70;99.90;;;;;;5075661;28;20384;-85
2022/12/31 10:32:55;;;;;;;0.60;0.60;;;17.90;99.90;;;;;;5076310;28;20049;-84
2022/12/31 10:35:48;;;;;;;1.17;0.65;;;18.40;99.90;;;;;;5056941;28;20120;-84
2022/12/31 10:38:44;;;;;;;1.27;0.50;;;18.70;99.90;;;;;;5055987;28;20174;-87
2022/12/31 10:42:09;;;;;;;2.78;1.02;;;19.20;99.90;;;;;;5076009;28;20048;-83
2022/12/31 10:45:18;;;;;;;5.05;1.50;;;19.20;99.90;;;;;;5058381;28;20105;-84
2022/12/31 10:48:33;;;;;;;2.85;1.30;;;19.30;99.90;;;;;;5069964;28;20051;-86
2022/12/31 10:51:41;;;;;;;1.17;0.90;;;19.20;99.90;;;;;;5077918;28;20072;-84
2022/12/31 10:54:59;;;;;;;2.55;0.60;;;19.00;99.90;;;;;;5059797;28;20040;-87
2022/12/31 10:58:00;;;;;;;2.55;0.80;;;19.10;99.90;;;;;;5076165;28;20053;-84
2022/12/31 11:01:08;;;;;;;1.55;0.70;;;19.00;99.90;;;;;;5072106;28;20494;-84
2022/12/31 11:04:26;;;;;;;0.77;0.57;;;19.00;99.90;;;;;;5048246;28;20052;-84
2022/12/31 11:07:50;;;;;;;0.75;0.60;;;19.20;99.90;;;;;;5065748;28;20190;-87
2022/12/31 11:10:43;;;;;;;1.77;0.50;;;19.20;99.90;;;;;;5053803;28;20063;-85
2022/12/31 11:13:55;;;;;;;2.00;0.70;;;19.30;99.90;;;;;;5050372;28;20106;-83
2022/12/31 11:17:04;;;;;;;0.85;0.60;;;19.60;99.90;;;;;;5071871;28;20087;-84
2022/12/31 11:20:24;;;;;;;0.75;0.55;;;19.80;99.90;;;;;;5052120;28;20052;-85
2022/12/31 11:23:39;;;;;;;2.42;0.80;;;20.00;99.90;;;;;;5074411;28;20052;-84
2022/12/31 11:26:26;;;;;;;0.40;0.40;;;20.00;99.90;;;;;;5071819;28;20084;-85
2022/12/31 11:29:47;;;;;;;1.23;0.80;;;19.60;99.90;;;;;;5073112;28;20052;-84
2022/12/31 11:32:55;;;;;;;4.13;0.80;;;19.10;99.90;;;;;;5060576;28;20123;-84
2022/12/31 11:36:16;;;;;;;1.42;0.65;;;19.40;99.90;;;;;;5051836;28;20045;-85
2022/12/31 11:39:30;;;;;;;0.50;0.50;;;19.70;99.90;;;;;;5065443;28;20118;-85
2022/12/31 11:42:50;;;;;;;1.98;0.70;;;19.90;99.90;;;;;;5074715;28;20075;-86
2022/12/31 11:46:01;;;;;;;2.22;0.55;;;20.40;99.90;;;;;;5071174;28;20052;-84
2022/12/31 11:49:15;;;;;;;0.77;0.60;;;20.20;99.90;;;;;;5061699;28;20045;-86
2022/12/31 11:52:23;;;;;;;3.80;0.68;;;19.60;99.90;;;;;;5058339;28;20052;-84
2022/12/31 11:55:31;;;;;;;1.05;0.52;;;19.60;99.90;;;;;;5065765;28;20048;-86
2022/12/31 11:58:19;;;;;;;1.67;0.77;;;20.40;99.90;;;;;;5074048;28;20101;-85
2022/12/31 12:01:10;;;;;;;1.85;0.70;;;20.70;99.90;;;;;;5079115;28;20055;-84
2022/12/31 12:03:58;;;;;;;0.60;0.60;;;21.00;99.90;;;;;;5064086;28;20067;-84
2022/12/31 12:06:45;;;;;;;2.83;0.70;;;21.10;99.90;;;;;;5062515;28;20190;-84
2022/12/31 12:09:34;;;;;;;0.65;0.60;;;20.60;99.90;;;;;;5071349;28;20051;-85
2022/12/31 12:12:21;;;;;;;1.23;0.60;;;21.20;99.90;;;;;;5073971;28;20048;-85
2022/12/31 12:15:20;;;;;;;1.33;0.63;;;21.10;99.90;;;;;;5058706;28;20128;-85
2022/12/31 12:18:20;;;;;;;3.25;0.50;;;21.00;99.90;;;;;;5072137;28;20154;-88
2022/12/31 12:21:23;;;;;;;0.75;0.52;;;20.70;99.90;;;;;;5059555;28;20088;-85
2022/12/31 12:24:28;;;;;;;1.98;0.80;;;20.50;99.90;;;;;;5058915;28;20044;-85
2022/12/31 12:27:25;;;;;;;1.77;0.40;;;20.20;99.90;;;;;;5054719;28;20064;-87
2022/12/31 12:30:27;;;;;;;2.53;0.57;;;19.70;99.90;;;;;;5061531;28;20071;-88
2022/12/31 12:33:17;;;;;;;0.40;0.40;;;19.50;99.90;;;;;;5081243;28;20098;-88
2022/12/31 12:36:13;;;;;;;1.83;0.85;;;19.80;99.90;;;;;;5066123;28;20048;-84
2022/12/31 12:39:05;;;;;;;0.73;0.60;;;19.70;99.90;;;;;;5075143;28;20516;-88
2022/12/31 12:42:10;;;;;;;1.13;0.67;;;19.90;99.90;;;;;;5062457;28;20128;-85
2022/12/31 12:45:13;;;;;;;2.25;0.50;;;19.90;99.90;;;;;;5066711;28;20352;-85
2022/12/31 12:48:07;;;;;;;3.50;0.60;;;20.00;99.90;;;;;;5075052;28;20123;-86
2022/12/31 12:50:55;;;;;;;2.63;0.75;;;20.10;99.90;;;;;;5055213;28;20049;-86
2022/12/31 12:54:20;;;;;;;0.82;0.50;;;19.60;99.90;;;;;;5081922;28;20067;-83
2022/12/31 12:57:28;;;;;;;4.43;0.70;;;19.30;99.90;;;;;;5076144;28;20232;-84
2022/12/31 13:00:28;;;;;;;1.30;0.98;;;19.40;99.90;;;;;;5047454;28;20040;-84
2022/12/31 13:03:15;;;;;;;2.80;0.70;;;19.50;99.90;;;;;;5041474;28;20104;-86
2022/12/31 13:06:24;;;;;;;1.13;0.68;;;19.30;99.90;;;;;;5064771;28;20047;-86
2022/12/31 13:09:30;;;;;;;0.95;0.70;;;19.00;99.90;;;;;;5072670;28;20063;-83
2022/12/31 13:12:32;;;;;;;1.77;1.00;;;18.70;99.90;;;;;;5068038;28;20048;-84
2022/12/31 13:15:45;;;;;;;1.55;0.90;;;18.40;99.90;;;;;;5067233;28;20079;-84
2022/12/31 13:18:56;;;;;;;2.55;0.80;;;18.20;99.90;;;;;;5064659;28;20115;-84
2022/12/31 13:22:03;;;;;;;0.50;0.50;;;18.00;99.90;;;;;;5070404;28;20063;-84
2022/12/31 13:25:26;;;;;;;3.03;0.82;;;18.00;99.90;;;;;;5071937;28;20049;-85
2022/12/31 13:28:15;;;;;;;2.17;1.00;;;17.90;99.90;;;;;;5075748;28;20055;-84
2022/12/31 13:31:11;;;;;;;1.08;0.88;;;17.90;99.90;;;;;;5070874;28;20059;-84
2022/12/31 13:34:15;;;;;;;0.80;0.77;;;17.80;99.90;;;;;;5072071;28;20149;-83
2022/12/31 13:37:30;;;;;;;1.45;0.70;;;17.70;99.90;;;;;;5070304;28;20044;-83
2022/12/31 13:40:52;;;;;;;1.50;1.02;;;17.70;99.90;;;;;;5057325;28;20044;-83
2022/12/31 13:44:07;;;;;;;2.58;0.90;;;17.60;99.90;;;;;;5044329;28;20079;-86
2022/12/31 13:47:27;;;;;;;3.17;1.05;;;17.50;99.90;;;;;;5060573;28;20080;-85
2022/12/31 13:50:52;;;;;;;2.80;1.00;;;17.30;99.90;;;;;;5073199;28;20056;-84
2022/12/31 13:54:00;;;;;;;0.98;0.88;;;17.30;99.90;;;;;;5071593;28;20060;-86
2022/12/31 13:56:50;;;;;;;0.93;0.60;;;17.30;99.90;;;;;;5062658;28;20389;-83
2022/12/31 13:59:43;;;;;;;0.93;0.63;;;17.30;99.90;;;;;;5063383;28;20053;-85
2022/12/31 14:02:35;;;;;;;1.10;0.75;;;17.30;99.90;;;;;;5076195;28;20040;-82
2022/12/31 14:05:35;;;;;;;1.33;0.90;;;17.30;99.90;;;;;;5050052;28;20134;-86
2022/12/31 14:08:29;;;;;;;2.67;1.23;;;17.30;99.90;;;;;;5061004;28;20078;-84
2022/12/31 14:11:35;;;;;;;2.20;0.70;;;17.20;99.90;;;;;;5075453;28;20552;-84
2022/12/31 14:14:36;;;;;;;1.55;1.13;;;17.20;99.90;;;;;;5061451;28;20056;-85
2022/12/31 14:17:49;;;;;;;1.48;1.08;;;17.10;99.90;;;;;;5075332;28;20041;-83
2022/12/31 14:20:47;;;;;;;2.10;1.00;;;17.00;99.90;;;;;;5077059;28;20048;-82
2022/12/31 14:23:37;;;;;;;1.17;0.93;;;16.90;99.90;;;;;;5067052;28;20044;-84
2022/12/31 14:26:30;;;;;;;1.15;1.05;;;16.80;99.90;;;;;;5060978;28;20048;-83
2022/12/31 14:29:52;;;;;;;1.77;0.90;;;16.70;99.90;;;;;;5073905;28;20102;-83
2022/12/31 14:32:45;;;;;;;0.77;0.77;;;16.50;99.90;;;;;;5038104;28;20079;-83
2022/12/31 14:35:52;;;;;;;0.90;0.90;;;16.40;99.90;;;;;;5074662;28;20134;-83
2022/12/31 14:39:05;;;;;;;1.75;1.00;;;16.30;99.90;;;;;;5066279;28;20453;-83
2022/12/31 14:42:31;;;;;;;2.20;1.45;;;16.20;99.90;;;;;;5073803;28;20081;-84
2022/12/31 14:45:39;;;;;;;2.35;0.95;;;16.10;99.90;;;;;;5061279;28;20381;-82
2022/12/31 14:48:53;;;;;;;1.00;0.95;;;15.90;99.90;;;;;;5062902;28;20145;-84
2022/12/31 14:51:41;;;;;;;1.70;1.00;;;15.80;99.90;;;;;;5070320;28;20449;-82
2022/12/31 14:54:35;;;;;;;1.25;1.02;;;15.80;99.90;;;;;;5048752;28;20052;-82
2022/12/31 14:57:32;;;;;;;1.10;0.90;;;15.70;99.90;;;;;;5079094;28;20539;-84
2022/12/31 15:00:54;;;;;;;2.13;0.95;;;15.70;99.90;;;;;;5050360;28;20045;-87
2022/12/31 15:03:44;;;;;;;1.20;0.95;;;15.70;99.90;;;;;;5076768;28;20459;-85
2022/12/31 15:07:15;;;;;;;1.20;1.00;;;15.70;99.90;;;;;;5077150;28;20040;-85
2022/12/31 15:10:28;;;;;;;1.67;1.00;;;15.70;99.90;;;;;;5064500;28;20397;-85
2022/12/31 15:13:30;;;;;;;3.05;0.90;;;15.60;99.90;;;;;;5075146;28;20040;-85
2022/12/31 15:16:21;;;;;;;1.33;1.10;;;15.60;99.90;;;;;;5075469;28;20044;-85
2022/12/31 15:19:28;;;;;;;1.17;1.08;;;15.50;99.90;;;;;;5062914;28;20374;-84
2022/12/31 15:22:47;;;;;;;2.45;1.00;;;15.40;99.90;;;;;;5044491;28;20056;-85
2022/12/31 15:25:37;;;;;;;3.42;1.00;;;15.50;99.90;;;;;;5072193;28;20064;-87
2022/12/31 15:28:37;;;;;;;1.48;1.00;;;15.50;99.90;;;;;;5081178;28;20036;-87
2022/12/31 15:31:25;;;;;;;1.15;1.05;;;15.40;99.90;;;;;;5079657;28;20070;-87
2022/12/31 15:34:28;;;;;;;3.05;1.20;;;15.40;99.90;;;;;;5069650;28;20120;-85
2022/12/31 15:37:34;;;;;;;1.15;0.85;;;15.40;99.90;;;;;;5058832;28;20041;-87
2022/12/31 15:40:24;;;;;;;1.13;0.82;;;15.40;99.90;;;;;;5056415;28;20041;-87
2022/12/31 15:43:23;;;;;;;1.30;0.82;;;15.30;99.90;;;;;;5072565;28;20044;-84
2022/12/31 15:46:39;;;;;;;1.67;1.10;;;15.30;99.90;;;;;;5067955;28;20376;-87
2022/12/31 15:49:34;;;;;;;2.13;1.13;;;15.30;99.90;;;;;;5074083;28;20051;-86